Time;durP1;ratioP1;P1;durP2;ratioP2;P2;SDS_P1;SDS_P2;PMS_P1;PMS_P2;Temp;Humidity;BMP_temperature;BMP_pressure;BME280_temperature;BME280_humidity;BME280_pressure;Samples;Min_cycle;Max_cycle;Signal;HPM_P1;HPM_P2
2021/10/08 00:00:09;;;;;;;37.97;24.40;;;8.30;99.90;;;;;;5052990;28;20592;-63
2021/10/08 00:02:35;;;;;;;43.67;24.50;;;8.30;99.90;;;;;;5062939;28;20170;-63
2021/10/08 00:05:01;;;;;;;36.90;24.20;;;8.20;99.90;;;;;;5071608;28;20197;-63
2021/10/08 00:07:27;;;;;;;44.67;25.00;;;8.20;99.90;;;;;;5064309;28;20209;-63
2021/10/08 00:09:52;;;;;;;45.87;25.47;;;8.10;99.90;;;;;;5052647;28;20175;-63
2021/10/08 00:12:18;;;;;;;43.30;26.27;;;8.10;99.90;;;;;;5055142;28;20577;-63
2021/10/08 00:14:44;;;;;;;41.97;24.63;;;8.10;99.90;;;;;;5062493;28;20213;-63
2021/10/08 00:17:10;;;;;;;41.07;24.87;;;8.10;99.90;;;;;;5052685;28;20538;-63
2021/10/08 00:19:37;;;;;;;40.70;25.37;;;8.00;99.90;;;;;;5055621;28;20166;-63
2021/10/08 00:22:02;;;;;;;44.77;24.30;;;7.90;99.90;;;;;;5072730;28;20193;-63
2021/10/08 00:24:28;;;;;;;38.47;23.80;;;7.90;99.90;;;;;;5070634;28;20663;-63
2021/10/08 00:26:54;;;;;;;45.73;25.50;;;7.80;99.90;;;;;;5051716;28;20217;-63
2021/10/08 00:29:19;;;;;;;40.47;24.57;;;7.80;99.90;;;;;;5052097;28;20250;-62
2021/10/08 00:31:45;;;;;;;47.83;25.73;;;7.70;99.90;;;;;;5072182;28;20309;-63
2021/10/08 00:34:11;;;;;;;48.37;26.60;;;7.70;99.90;;;;;;5072474;28;20236;-63
2021/10/08 00:36:36;;;;;;;44.40;27.10;;;7.80;99.90;;;;;;5054103;28;20170;-63
2021/10/08 00:39:03;;;;;;;50.23;27.53;;;7.80;99.90;;;;;;5052227;28;20179;-63
2021/10/08 00:41:29;;;;;;;49.93;29.03;;;7.70;99.90;;;;;;5068155;28;20178;-63
2021/10/08 00:43:55;;;;;;;47.17;28.57;;;7.70;99.90;;;;;;5072178;28;20209;-63
2021/10/08 00:46:21;;;;;;;54.20;31.77;;;7.70;99.90;;;;;;5057678;28;20185;-63
2021/10/08 00:48:51;;;;;;;57.20;33.57;;;7.70;99.90;;;;;;5052321;28;20182;-63
2021/10/08 00:51:17;;;;;;;59.27;34.60;;;7.70;99.90;;;;;;5070573;28;20213;-63
2021/10/08 00:53:43;;;;;;;52.77;31.03;;;7.70;99.90;;;;;;5071849;28;20223;-63
2021/10/08 00:56:09;;;;;;;54.30;29.43;;;7.80;99.90;;;;;;5054571;28;20206;-63
2021/10/08 00:58:36;;;;;;;54.20;28.97;;;7.90;99.90;;;;;;5059301;28;20556;-62
2021/10/08 01:01:01;;;;;;;51.97;30.17;;;7.90;99.90;;;;;;5071759;28;20212;-63
2021/10/08 01:03:27;;;;;;;45.27;28.00;;;7.90;99.90;;;;;;5065667;28;20580;-63
2021/10/08 01:05:53;;;;;;;50.53;29.03;;;7.90;99.90;;;;;;5051118;28;20717;-63
2021/10/08 01:08:18;;;;;;;51.43;30.10;;;7.90;99.90;;;;;;5055633;28;20178;-62
2021/10/08 01:10:45;;;;;;;51.63;28.10;;;7.80;99.90;;;;;;5071550;28;20636;-63
2021/10/08 01:13:12;;;;;;;42.20;27.33;;;7.80;99.90;;;;;;5069380;28;20170;-62
2021/10/08 01:15:38;;;;;;;53.70;29.47;;;7.80;99.90;;;;;;5051639;28;20210;-63
2021/10/08 01:18:04;;;;;;;47.60;26.13;;;7.80;99.90;;;;;;5052093;28;20163;-63
2021/10/08 01:20:30;;;;;;;50.60;27.47;;;7.90;99.90;;;;;;5071377;28;20173;-63
2021/10/08 01:23:00;;;;;;;48.60;28.77;;;7.80;99.90;;;;;;5071910;28;20250;-63
2021/10/08 01:25:27;;;;;;;46.53;27.20;;;7.80;99.90;;;;;;5051783;28;20228;-63
2021/10/08 01:27:53;;;;;;;46.23;26.23;;;7.80;99.90;;;;;;5067225;28;20185;-63
2021/10/08 01:30:19;;;;;;;42.60;25.53;;;7.70;99.90;;;;;;5071352;28;20170;-63
2021/10/08 01:32:47;;;;;;;48.93;26.20;;;7.70;99.90;;;;;;5057497;28;20531;-63
2021/10/08 01:35:13;;;;;;;43.90;26.03;;;7.70;99.90;;;;;;5051387;28;20201;-63
2021/10/08 01:37:39;;;;;;;41.83;25.43;;;7.60;99.90;;;;;;5064230;28;20216;-63
2021/10/08 01:40:05;;;;;;;52.57;28.20;;;7.60;99.90;;;;;;5077929;28;20205;-63
2021/10/08 01:42:31;;;;;;;47.07;26.73;;;7.60;99.90;;;;;;5068268;28;20186;-63
2021/10/08 01:44:59;;;;;;;42.00;25.43;;;7.70;99.90;;;;;;5058235;28;20556;-63
2021/10/08 01:47:25;;;;;;;45.67;26.03;;;7.70;99.90;;;;;;5066845;28;20234;-63
2021/10/08 01:49:51;;;;;;;46.23;25.00;;;7.80;99.90;;;;;;5077936;28;20218;-63
2021/10/08 01:52:17;;;;;;;44.90;23.90;;;7.80;99.90;;;;;;5070502;28;20179;-63
2021/10/08 01:54:42;;;;;;;46.37;23.57;;;7.80;99.90;;;;;;5060851;28;20296;-63
2021/10/08 01:57:08;;;;;;;39.40;23.93;;;7.80;99.90;;;;;;5078142;28;20201;-63
2021/10/08 01:59:34;;;;;;;43.03;25.03;;;7.80;99.90;;;;;;5075827;28;20640;-63
2021/10/08 02:01:59;;;;;;;44.87;25.77;;;7.70;99.90;;;;;;5078048;28;20178;-63
2021/10/08 02:04:25;;;;;;;51.23;27.03;;;7.60;99.90;;;;;;5061524;28;20213;-62
2021/10/08 02:06:50;;;;;;;41.43;25.90;;;7.60;99.90;;;;;;5057909;28;20178;-63
2021/10/08 02:09:16;;;;;;;50.40;25.67;;;7.50;99.90;;;;;;5070570;28;20186;-63
2021/10/08 02:11:42;;;;;;;47.17;24.77;;;7.50;99.90;;;;;;5077721;28;20174;-63
2021/10/08 02:14:07;;;;;;;45.43;23.50;;;7.50;99.90;;;;;;5066720;28;20225;-66
2021/10/08 02:16:33;;;;;;;39.07;23.23;;;7.40;99.90;;;;;;5059439;28;20659;-68
2021/10/08 02:18:59;;;;;;;37.87;23.23;;;7.40;99.90;;;;;;5068921;28;20174;-64
2021/10/08 02:21:25;;;;;;;61.03;27.90;;;7.40;99.90;;;;;;5079307;28;20224;-67
2021/10/08 02:23:52;;;;;;;38.50;22.60;;;7.40;99.90;;;;;;5063520;28;20664;-69
2021/10/08 02:26:17;;;;;;;54.73;25.80;;;7.40;99.90;;;;;;5059515;28;20244;-66
2021/10/08 02:28:43;;;;;;;94.30;29.10;;;7.40;99.90;;;;;;5073538;28;20190;-68
2021/10/08 02:31:10;;;;;;;105.30;31.77;;;7.40;99.90;;;;;;5079207;28;20181;-66
2021/10/08 02:33:36;;;;;;;96.53;28.37;;;7.50;99.90;;;;;;5066551;28;20238;-69
2021/10/08 02:36:06;;;;;;;56.47;26.57;;;7.50;99.90;;;;;;5059190;28;20198;-69
2021/10/08 02:38:34;;;;;;;61.53;27.00;;;7.50;99.90;;;;;;5070504;28;20178;-67
2021/10/08 02:40:59;;;;;;;60.67;27.13;;;7.50;99.90;;;;;;5078686;28;20170;-66
2021/10/08 02:43:25;;;;;;;74.60;29.10;;;7.60;99.90;;;;;;5068825;28;20183;-67
2021/10/08 02:45:51;;;;;;;57.27;27.80;;;7.60;99.90;;;;;;5059648;28;20230;-69
2021/10/08 02:48:17;;;;;;;118.17;33.03;;;7.60;99.90;;;;;;5060186;28;20214;-67
2021/10/08 02:50:43;;;;;;;69.20;29.07;;;7.60;99.90;;;;;;5072460;28;20568;-67
2021/10/08 02:53:09;;;;;;;71.27;29.03;;;7.60;99.90;;;;;;5067568;28;20182;-68
2021/10/08 02:55:35;;;;;;;62.17;28.90;;;7.60;99.90;;;;;;5055534;28;20226;-69
2021/10/08 02:58:00;;;;;;;74.27;29.27;;;7.60;99.90;;;;;;5062559;28;20182;-68
2021/10/08 03:00:26;;;;;;;117.73;33.57;;;7.70;99.90;;;;;;5075613;28;20181;-66
2021/10/08 03:02:51;;;;;;;61.70;29.40;;;7.70;99.90;;;;;;5070243;28;20181;-67
2021/10/08 03:05:17;;;;;;;93.17;33.13;;;7.70;99.90;;;;;;5054631;28;20600;-68
2021/10/08 03:07:43;;;;;;;223.53;40.27;;;7.70;99.90;;;;;;5058885;28;20182;-67
2021/10/08 03:10:10;;;;;;;129.80;31.60;;;7.70;99.90;;;;;;5075560;28;20594;-67
2021/10/08 03:12:36;;;;;;;191.73;34.73;;;7.70;99.90;;;;;;5073334;28;20177;-70
2021/10/08 03:15:03;;;;;;;69.27;27.53;;;7.60;99.90;;;;;;5066808;28;20217;-66
2021/10/08 03:17:29;;;;;;;231.67;38.57;;;7.60;99.90;;;;;;5071031;28;20264;-67
2021/10/08 03:19:54;;;;;;;74.33;27.87;;;7.60;99.90;;;;;;5075364;28;20201;-67
2021/10/08 03:22:20;;;;;;;74.50;26.73;;;7.60;99.90;;;;;;5072674;28;20223;-67
2021/10/08 03:24:46;;;;;;;65.63;27.27;;;7.50;99.90;;;;;;5055573;28;20209;-68
2021/10/08 03:27:11;;;;;;;124.97;31.07;;;7.50;99.90;;;;;;5055980;28;20228;-67
2021/10/08 03:29:37;;;;;;;163.73;30.57;;;7.40;99.90;;;;;;5066224;28;20910;-67
2021/10/08 03:32:03;;;;;;;112.00;25.70;;;7.40;99.90;;;;;;5055438;28;20179;-69
2021/10/08 03:34:28;;;;;;;195.57;33.30;;;7.40;99.90;;;;;;5055087;28;20219;-68
2021/10/08 03:37:00;;;;;;;169.23;30.37;;;7.30;99.90;;;;;;5055478;28;20167;-70
2021/10/08 03:39:30;;;;;;;57.83;22.90;;;7.40;99.90;;;;;;5072404;28;20182;-67
2021/10/08 03:41:56;;;;;;;43.27;21.90;;;7.30;99.90;;;;;;5075234;28;20205;-71
2021/10/08 03:44:23;;;;;;;46.50;23.47;;;7.30;99.90;;;;;;5058330;28;20222;-64
2021/10/08 03:46:51;;;;;;;52.13;25.00;;;7.30;99.90;;;;;;5065952;28;20252;-63
2021/10/08 03:49:18;;;;;;;64.50;24.70;;;7.20;99.90;;;;;;5073091;28;20706;-64
2021/10/08 03:51:47;;;;;;;41.23;21.53;;;7.20;99.90;;;;;;5061769;28;20261;-64
2021/10/08 03:56:42;;;;;;;40.20;21.30;;;7.10;99.90;;;;;;5043070;28;20341;-66
2021/10/08 03:59:09;;;;;;;42.53;21.70;;;7.10;99.90;;;;;;5052878;28;20636;-67
2021/10/08 04:01:36;;;;;;;44.37;21.40;;;7.00;99.90;;;;;;5044531;28;20192;-67
2021/10/08 04:04:06;;;;;;;35.63;20.27;;;7.00;99.90;;;;;;5034548;28;20225;-68
2021/10/08 04:06:33;;;;;;;47.83;24.17;;;7.00;99.90;;;;;;5022636;28;20192;-67
2021/10/08 04:09:00;;;;;;;48.60;23.57;;;7.00;99.90;;;;;;5034414;28;20171;-66
2021/10/08 04:11:26;;;;;;;45.53;21.77;;;6.90;99.90;;;;;;5027396;28;20614;-67
2021/10/08 04:13:52;;;;;;;44.27;21.47;;;6.90;99.90;;;;;;5016482;28;20211;-67
2021/10/08 04:16:19;;;;;;;41.93;21.80;;;6.80;99.90;;;;;;5034064;28;20207;-70
2021/10/08 04:18:44;;;;;;;50.63;22.40;;;6.80;99.90;;;;;;5033271;28;20271;-66
2021/10/08 04:21:10;;;;;;;41.63;21.47;;;6.80;99.90;;;;;;5013689;28;20251;-65
2021/10/08 04:23:36;;;;;;;43.20;22.00;;;6.70;99.90;;;;;;5011579;28;20176;-65
2021/10/08 04:26:02;;;;;;;49.30;23.27;;;6.70;99.90;;;;;;5031597;28;20234;-65
2021/10/08 04:28:27;;;;;;;60.67;25.10;;;6.60;99.90;;;;;;5032768;28;20164;-64
2021/10/08 04:30:53;;;;;;;49.73;23.07;;;6.60;99.90;;;;;;5015095;28;20188;-65
2021/10/08 04:33:20;;;;;;;54.37;25.23;;;6.60;99.90;;;;;;5012852;28;20182;-65
2021/10/08 04:35:47;;;;;;;54.77;24.47;;;6.50;99.90;;;;;;5028098;28;20241;-65
2021/10/08 04:38:14;;;;;;;49.03;24.07;;;6.50;99.90;;;;;;5032562;28;20646;-66
2021/10/08 04:40:39;;;;;;;52.47;23.60;;;6.40;99.90;;;;;;5017730;28;20184;-64
2021/10/08 04:43:05;;;;;;;54.37;24.40;;;6.40;99.90;;;;;;5022415;28;20589;-65
2021/10/08 04:45:31;;;;;;;42.90;21.80;;;6.40;99.90;;;;;;5032140;28;20205;-66
2021/10/08 04:47:57;;;;;;;38.63;20.70;;;6.40;99.90;;;;;;5015585;28;20184;-66
2021/10/08 04:50:23;;;;;;;45.53;22.20;;;6.40;99.90;;;;;;5012150;28;20184;-66
2021/10/08 04:52:49;;;;;;;47.63;21.40;;;6.30;99.90;;;;;;5027377;28;20175;-66
2021/10/08 04:55:15;;;;;;;44.07;21.80;;;6.30;99.90;;;;;;5032106;28;20595;-66
2021/10/08 04:57:40;;;;;;;40.30;22.20;;;6.30;99.90;;;;;;5018515;28;20184;-65
2021/10/08 05:00:07;;;;;;;43.30;22.27;;;6.20;99.90;;;;;;5012211;28;20175;-65
2021/10/08 05:02:33;;;;;;;39.13;22.13;;;6.20;99.90;;;;;;5023963;28;20207;-66
2021/10/08 05:04:59;;;;;;;45.80;23.27;;;6.20;99.90;;;;;;5031234;28;20227;-66
2021/10/08 05:07:25;;;;;;;40.57;21.67;;;6.20;99.90;;;;;;5021500;28;20550;-66
2021/10/08 05:09:51;;;;;;;43.27;22.97;;;6.20;99.90;;;;;;5012040;28;20177;-65
2021/10/08 05:12:16;;;;;;;43.70;21.93;;;6.20;99.90;;;;;;5029004;28;20194;-65
2021/10/08 05:14:42;;;;;;;37.53;21.73;;;6.20;99.90;;;;;;5031465;28;20215;-65
2021/10/08 05:17:08;;;;;;;40.20;21.53;;;6.20;99.90;;;;;;5015123;28;20275;-64
2021/10/08 05:19:33;;;;;;;45.17;21.23;;;6.20;99.90;;;;;;5011677;28;20245;-67
2021/10/08 05:22:00;;;;;;;40.47;20.23;;;6.20;99.90;;;;;;5025545;28;20180;-64
2021/10/08 05:24:26;;;;;;;43.20;21.37;;;6.10;99.90;;;;;;5031688;28;20258;-65
2021/10/08 05:26:52;;;;;;;39.97;21.33;;;6.10;99.90;;;;;;5019624;28;20280;-67
2021/10/08 05:29:17;;;;;;;37.53;21.57;;;6.00;99.90;;;;;;5011917;28;20333;-66
2021/10/08 05:31:43;;;;;;;34.37;19.83;;;6.00;99.90;;;;;;5021791;28;20703;-65
2021/10/08 05:34:11;;;;;;;43.00;21.03;;;5.90;99.90;;;;;;5031608;28;20668;-67
2021/10/08 05:36:36;;;;;;;37.97;21.43;;;5.90;99.90;;;;;;5022654;28;20210;-67
2021/10/08 05:39:03;;;;;;;30.83;19.47;;;5.90;99.90;;;;;;5010969;28;20172;-65
2021/10/08 05:41:29;;;;;;;31.73;18.97;;;5.90;99.90;;;;;;5018919;28;20190;-66
2021/10/08 05:43:54;;;;;;;39.00;21.80;;;5.80;99.90;;;;;;5031630;28;20175;-65
2021/10/08 05:46:20;;;;;;;37.63;22.27;;;5.80;99.90;;;;;;5025734;28;20196;-66
2021/10/08 05:48:46;;;;;;;35.00;19.97;;;5.80;99.90;;;;;;5013908;28;20206;-64
2021/10/08 05:51:11;;;;;;;34.63;20.10;;;5.80;99.90;;;;;;5020557;28;20601;-67
2021/10/08 05:53:37;;;;;;;33.77;19.87;;;5.80;99.90;;;;;;5011548;28;20645;-68
2021/10/08 05:56:03;;;;;;;37.20;20.90;;;5.80;99.90;;;;;;5011536;28;20306;-66
2021/10/08 05:58:28;;;;;;;42.93;21.70;;;5.90;99.90;;;;;;5012124;28;20633;-66
2021/10/08 06:00:54;;;;;;;33.00;20.13;;;6.00;99.90;;;;;;5015062;28;20179;-64
2021/10/08 06:03:19;;;;;;;32.80;20.43;;;6.10;99.90;;;;;;5011925;28;20200;-64
2021/10/08 06:05:45;;;;;;;29.27;19.20;;;6.10;99.90;;;;;;5011618;28;20716;-67
2021/10/08 06:08:12;;;;;;;39.53;20.70;;;6.00;99.90;;;;;;5011698;28;20263;-67
2021/10/08 06:10:37;;;;;;;35.53;20.87;;;6.10;99.90;;;;;;5008749;28;20180;-67
2021/10/08 06:13:03;;;;;;;36.43;21.00;;;6.20;99.90;;;;;;5023714;28;20553;-66
2021/10/08 06:15:29;;;;;;;34.80;19.60;;;6.20;99.90;;;;;;5030944;28;20204;-66
2021/10/08 06:17:55;;;;;;;34.40;20.67;;;6.30;99.90;;;;;;5020179;28;20188;-66
2021/10/08 06:20:21;;;;;;;38.17;20.83;;;6.30;99.90;;;;;;5011279;28;20576;-65
2021/10/08 06:22:49;;;;;;;37.60;22.17;;;6.40;99.90;;;;;;5020330;28;20172;-64
2021/10/08 06:25:15;;;;;;;39.57;24.63;;;6.50;99.90;;;;;;5026626;28;20211;-66
2021/10/08 06:27:41;;;;;;;45.80;25.87;;;6.60;99.90;;;;;;5015050;28;20172;-64
2021/10/08 06:30:08;;;;;;;43.17;24.43;;;6.60;99.90;;;;;;5015892;28;20611;-67
2021/10/08 06:32:34;;;;;;;40.07;24.63;;;6.70;99.90;;;;;;5015096;28;20311;-64
2021/10/08 06:35:00;;;;;;;35.77;25.13;;;6.70;99.90;;;;;;5018958;28;20691;-67
2021/10/08 06:37:25;;;;;;;35.63;24.77;;;6.80;99.90;;;;;;5034833;28;20259;-65
2021/10/08 06:39:51;;;;;;;32.07;23.20;;;6.80;99.90;;;;;;5031614;28;20183;-68
2021/10/08 06:42:23;;;;;;;30.50;22.67;;;6.90;99.90;;;;;;5015088;28;20231;-67
2021/10/08 06:44:49;;;;;;;31.10;20.97;;;6.90;99.90;;;;;;5018350;28;20219;-67
2021/10/08 06:47:15;;;;;;;33.00;22.10;;;6.90;99.90;;;;;;5014205;28;20241;-65
2021/10/08 06:49:40;;;;;;;33.77;23.53;;;7.00;99.90;;;;;;5017952;28;20187;-65
2021/10/08 06:52:06;;;;;;;36.53;23.70;;;7.00;99.90;;;;;;5034601;28;20238;-66
2021/10/08 06:54:32;;;;;;;35.87;24.47;;;7.30;99.90;;;;;;5031941;28;20238;-67
2021/10/08 06:56:57;;;;;;;40.10;26.77;;;7.80;99.90;;;;;;5014829;28;20180;-67
2021/10/08 06:59:23;;;;;;;25.83;20.50;;;8.50;99.90;;;;;;5027641;28;20184;-67
2021/10/08 07:01:50;;;;;;;22.80;18.27;;;9.30;99.90;;;;;;5034089;28;20179;-67
2021/10/08 07:04:16;;;;;;;19.23;15.33;;;10.00;99.90;;;;;;5022084;28;20180;-63
2021/10/08 07:06:42;;;;;;;16.87;15.17;;;10.70;99.90;;;;;;5014417;28;20175;-62
2021/10/08 07:09:07;;;;;;;14.07;12.67;;;11.20;99.90;;;;;;5024297;28;20190;-64
2021/10/08 07:11:33;;;;;;;13.20;12.07;;;11.50;99.90;;;;;;5033912;28;20207;-66
2021/10/08 07:13:59;;;;;;;12.50;11.27;;;11.70;99.90;;;;;;5025113;28;20215;-63
2021/10/08 07:16:25;;;;;;;13.10;10.60;;;12.00;99.90;;;;;;5014118;28;20195;-64
2021/10/08 07:18:55;;;;;;;12.97;10.00;;;12.30;99.90;;;;;;5021067;28;20168;-65
2021/10/08 07:21:22;;;;;;;11.10;10.20;;;12.50;99.90;;;;;;5033628;28;20168;-65
2021/10/08 07:23:48;;;;;;;11.53;10.53;;;12.70;99.90;;;;;;5030538;28;20733;-63
2021/10/08 07:26:18;;;;;;;10.63;9.63;;;12.90;99.90;;;;;;5014155;28;20606;-64
2021/10/08 07:28:44;;;;;;;10.97;10.07;;;13.10;99.90;;;;;;5018751;28;20180;-65
2021/10/08 07:31:10;;;;;;;10.30;9.40;;;13.40;99.90;;;;;;5033732;28;20176;-66
2021/10/08 07:33:37;;;;;;;10.30;9.47;;;13.80;99.90;;;;;;5030204;28;20172;-64
2021/10/08 07:36:04;;;;;;;11.03;9.97;;;14.30;99.90;;;;;;5012114;28;20287;-66
2021/10/08 07:38:30;;;;;;;10.70;9.63;;;14.20;99.90;;;;;;5014927;28;20239;-65
2021/10/08 07:40:56;;;;;;;9.97;9.17;;;14.60;99.90;;;;;;5024600;28;20165;-64
2021/10/08 07:43:21;;;;;;;9.57;8.73;;;15.10;99.90;;;;;;5013760;28;20168;-64
2021/10/08 07:45:47;;;;;;;10.00;9.00;;;15.70;99.90;;;;;;5013607;28;20200;-66
2021/10/08 07:48:12;;;;;;;10.07;9.27;;;16.30;99.90;;;;;;5031525;28;20183;-64
2021/10/08 07:50:38;;;;;;;10.00;9.10;;;16.80;99.90;;;;;;5033067;28;20175;-68
2021/10/08 07:53:04;;;;;;;10.80;8.90;;;17.30;99.90;;;;;;5016075;28;20242;-69
2021/10/08 07:55:30;;;;;;;10.33;9.33;;;17.70;99.90;;;;;;5011960;28;20214;-68
2021/10/08 07:57:56;;;;;;;11.97;9.20;;;18.10;99.90;;;;;;5028625;28;20535;-65
2021/10/08 08:00:21;;;;;;;9.63;8.80;;;18.20;99.90;;;;;;5033174;28;20167;-64
2021/10/08 08:02:47;;;;;;;10.87;9.87;;;18.60;99.90;;;;;;5019290;28;20255;-67
2021/10/08 08:05:13;;;;;;;11.70;10.13;;;19.00;99.90;;;;;;5013413;28;20680;-65
2021/10/08 08:07:39;;;;;;;11.57;9.90;;;19.40;99.90;;;;;;5019700;28;20188;-66
2021/10/08 08:10:08;;;;;;;11.15;10.05;;;19.70;99.90;;;;;;5013182;28;20173;-67
2021/10/08 08:12:34;;;;;;;11.07;9.97;;;19.80;99.90;;;;;;5024335;28;20179;-64
2021/10/08 08:15:00;;;;;;;10.60;9.50;;;20.10;99.90;;;;;;5031901;28;20237;-67
2021/10/08 08:17:25;;;;;;;11.60;9.70;;;20.20;99.90;;;;;;5023781;28;20172;-67
2021/10/08 08:19:51;;;;;;;10.95;9.85;;;20.30;99.90;;;;;;5017607;28;20183;-66
2021/10/08 08:22:17;;;;;;;11.15;9.85;;;20.20;99.90;;;;;;5033096;28;20621;-66
2021/10/08 08:24:42;;;;;;;12.75;10.52;;;20.20;99.90;;;;;;5029603;28;20207;-65
2021/10/08 08:27:08;;;;;;;10.82;9.88;;;20.10;99.90;;;;;;5013211;28;20204;-63
2021/10/08 08:29:33;;;;;;;10.68;9.57;;;20.00;99.90;;;;;;5013705;28;20235;-63
2021/10/08 08:31:59;;;;;;;12.07;9.57;;;20.20;99.90;;;;;;5032483;28;20203;-64
2021/10/08 08:34:26;;;;;;;11.75;10.55;;;20.40;99.90;;;;;;5032235;28;20210;-63
2021/10/08 08:36:52;;;;;;;12.25;8.95;;;20.80;99.90;;;;;;5013023;28;20168;-64
2021/10/08 08:39:19;;;;;;;9.77;8.82;;;21.00;99.90;;;;;;5012587;28;20178;-66
2021/10/08 08:41:45;;;;;;;10.93;9.60;;;20.90;99.90;;;;;;5030512;28;20187;-66
2021/10/08 08:44:10;;;;;;;11.15;10.05;;;20.60;99.90;;;;;;5024590;28;20180;-66
2021/10/08 08:46:36;;;;;;;12.27;9.30;;;20.70;99.90;;;;;;5012563;28;20854;-66
2021/10/08 08:49:03;;;;;;;9.88;8.98;;;20.80;99.90;;;;;;5022414;28;20190;-66
2021/10/08 08:51:30;;;;;;;10.10;9.20;;;21.30;99.90;;;;;;5032201;28;20229;-65
2021/10/08 08:54:06;;;;;;;11.68;10.05;;;21.60;99.90;;;;;;5021522;28;20188;-65
2021/10/08 08:56:33;;;;;;;11.10;10.05;;;21.80;99.90;;;;;;5012368;28;20194;-64
2021/10/08 08:59:05;;;;;;;9.85;9.05;;;21.90;99.90;;;;;;5022418;28;20548;-65
2021/10/08 09:01:32;;;;;;;13.63;10.13;;;22.20;99.90;;;;;;5031867;28;20182;-64
2021/10/08 09:04:19;;;;;;;11.18;10.07;;;22.50;99.90;;;;;;5022483;28;20263;-65
2021/10/08 09:06:45;;;;;;;10.57;9.52;;;22.80;99.90;;;;;;5012482;28;20172;-66
2021/10/08 09:09:19;;;;;;;9.68;8.88;;;23.00;99.90;;;;;;5022624;28;20697;-66
2021/10/08 09:11:46;;;;;;;9.98;8.93;;;23.60;99.90;;;;;;5031876;28;20182;-66
2021/10/08 09:14:24;;;;;;;11.35;10.25;;;24.10;99.90;;;;;;5024601;28;20235;-64
2021/10/08 09:17:08;;;;;;;10.20;9.30;;;24.60;99.90;;;;;;5012351;28;20174;-65
2021/10/08 09:19:53;;;;;;;10.20;9.25;;;24.60;99.90;;;;;;5024470;28;20181;-65
2021/10/08 09:22:20;;;;;;;11.07;9.95;;;24.60;99.90;;;;;;5031807;28;20168;-66
2021/10/08 09:24:46;;;;;;;11.30;10.30;;;24.90;99.90;;;;;;5017527;28;20200;-66
2021/10/08 09:27:14;;;;;;;11.30;10.15;;;24.90;99.90;;;;;;5012085;28;20175;-64
2021/10/08 09:29:48;;;;;;;11.25;10.10;;;24.90;99.90;;;;;;5015500;28;20287;-65
2021/10/08 09:32:14;;;;;;;16.30;11.80;;;24.80;99.90;;;;;;5012023;28;20175;-65
2021/10/08 09:34:40;;;;;;;11.48;10.27;;;24.50;99.90;;;;;;5027993;28;20550;-66
2021/10/08 09:37:07;;;;;;;12.07;10.85;;;24.30;99.90;;;;;;5031731;28;20186;-66
2021/10/08 09:39:33;;;;;;;12.00;10.60;;;24.40;99.90;;;;;;5016293;28;20175;-64
2021/10/08 09:42:04;;;;;;;11.38;10.27;;;24.50;99.90;;;;;;5012409;28;20183;-65
2021/10/08 09:44:35;;;;;;;13.48;10.45;;;24.20;99.90;;;;;;5025498;28;20570;-66
2021/10/08 09:47:11;;;;;;;11.55;10.45;;;24.30;99.90;;;;;;5031287;28;20172;-66
2021/10/08 09:49:39;;;;;;;10.60;9.70;;;24.50;99.90;;;;;;5009819;28;20271;-63
2021/10/08 09:52:23;;;;;;;11.98;10.80;;;24.70;99.90;;;;;;5011844;28;20180;-66
2021/10/08 09:55:00;;;;;;;10.63;9.80;;;25.00;99.90;;;;;;5143224;22;20286;-63
2021/10/08 09:57:27;;;;;;;10.60;9.68;;;25.00;99.90;;;;;;5009713;28;20184;-64
2021/10/08 09:59:54;;;;;;;10.85;9.95;;;25.10;99.90;;;;;;5014810;28;20594;-63
2021/10/08 10:02:21;;;;;;;10.43;9.43;;;25.20;99.90;;;;;;5035233;28;20168;-64
2021/10/08 10:04:51;;;;;;;11.25;9.85;;;25.40;99.90;;;;;;5032796;28;20172;-64
2021/10/08 10:07:20;;;;;;;10.23;9.27;;;25.20;99.90;;;;;;4995745;28;20184;-64
2021/10/08 10:09:46;;;;;;;9.98;9.07;;;25.40;99.90;;;;;;4995494;28;20181;-64
2021/10/08 10:12:17;;;;;;;10.23;9.32;;;25.60;99.90;;;;;;5014745;28;20184;-64
2021/10/08 10:14:45;;;;;;;9.50;8.63;;;25.40;99.90;;;;;;5009028;28;20615;-64
2021/10/08 10:17:11;;;;;;;9.80;8.68;;;25.30;99.90;;;;;;4995823;28;20195;-64
2021/10/08 10:19:40;;;;;;;9.60;8.80;;;25.60;99.90;;;;;;4999820;28;20263;-64
2021/10/08 10:22:06;;;;;;;9.32;8.52;;;25.40;99.90;;;;;;5015461;28;20267;-64
2021/10/08 10:24:35;;;;;;;8.98;8.18;;;25.60;99.90;;;;;;5011780;28;20169;-64
2021/10/08 10:27:01;;;;;;;9.90;9.10;;;25.30;99.90;;;;;;4995653;28;20181;-64
2021/10/08 10:29:27;;;;;;;8.45;7.75;;;25.00;99.90;;;;;;4996919;28;20272;-64
2021/10/08 10:31:55;;;;;;;9.18;8.38;;;24.80;99.90;;;;;;5014922;28;20204;-64
2021/10/08 10:34:20;;;;;;;10.23;8.93;;;25.10;99.90;;;;;;5014256;28;20250;-63
2021/10/08 10:36:46;;;;;;;10.05;9.18;;;25.20;99.90;;;;;;4995396;28;20200;-64
2021/10/08 10:39:15;;;;;;;10.40;9.38;;;24.80;99.90;;;;;;5003274;28;20259;-64
2021/10/08 10:41:46;;;;;;;10.13;9.13;;;25.50;99.90;;;;;;5014745;28;20218;-64
2021/10/08 10:44:27;;;;;;;9.48;8.68;;;26.10;99.90;;;;;;4996893;28;20508;-63
2021/10/08 10:47:32;;;;;;;9.70;8.85;;;26.50;99.90;;;;;;4995313;28;20366;-64
2021/10/08 10:50:39;;;;;;;9.43;8.60;;;25.80;99.90;;;;;;5014595;28;20222;-64
2021/10/08 10:53:05;;;;;;;8.73;7.93;;;25.10;99.90;;;;;;5008361;28;20180;-64
2021/10/08 10:55:33;;;;;;;10.38;8.80;;;24.50;99.90;;;;;;4994699;28;20213;-64
2021/10/08 10:58:08;;;;;;;10.50;9.43;;;24.40;99.90;;;;;;4996101;28;20714;-64
2021/10/08 11:00:41;;;;;;;9.23;8.52;;;24.70;99.90;;;;;;4994667;28;20190;-64
2021/10/08 11:03:12;;;;;;;9.95;9.00;;;24.90;99.90;;;;;;4999778;28;20211;-64
2021/10/08 11:05:41;;;;;;;9.35;8.50;;;25.20;99.90;;;;;;5014343;28;20204;-64
2021/10/08 11:08:08;;;;;;;8.57;7.88;;;25.00;99.90;;;;;;5000831;28;20713;-64
2021/10/08 11:10:35;;;;;;;9.93;8.65;;;25.10;99.90;;;;;;4993252;28;20177;-64
2021/10/08 11:13:29;;;;;;;9.27;8.43;;;24.50;99.90;;;;;;5006379;28;20193;-64
2021/10/08 11:16:00;;;;;;;9.23;8.48;;;24.60;99.90;;;;;;5014056;28;20620;-64
2021/10/08 11:18:42;;;;;;;9.82;8.95;;;24.40;99.90;;;;;;4999562;28;20180;-64
2021/10/08 11:21:12;;;;;;;8.50;7.80;;;24.10;99.90;;;;;;4994370;28;20227;-64
2021/10/08 11:23:39;;;;;;;9.18;8.38;;;24.40;99.90;;;;;;5009316;28;20601;-63
2021/10/08 11:26:07;;;;;;;9.07;8.00;;;24.90;99.90;;;;;;5013955;28;20662;-64
2021/10/08 11:28:36;;;;;;;9.30;8.38;;;25.00;99.90;;;;;;4999700;28;20212;-64
2021/10/08 11:31:03;;;;;;;9.93;9.05;;;24.30;99.90;;;;;;4992805;28;20709;-64
2021/10/08 11:33:34;;;;;;;8.50;7.75;;;23.80;99.90;;;;;;5006723;28;20553;-64
2021/10/08 11:36:16;;;;;;;9.20;8.20;;;23.80;99.90;;;;;;5003791;28;20556;-64
2021/10/08 11:38:42;;;;;;;8.32;7.63;;;23.80;99.90;;;;;;4994174;28;20662;-64
2021/10/08 11:41:34;;;;;;;10.40;9.60;;;24.20;99.90;;;;;;5000084;28;20184;-64
2021/10/08 11:44:16;;;;;;;9.32;8.63;;;24.40;99.90;;;;;;4993309;28;20208;-64
2021/10/08 11:46:55;;;;;;;9.85;8.95;;;24.60;99.90;;;;;;4994259;28;20588;-63
2021/10/08 11:49:38;;;;;;;9.05;8.15;;;24.60;99.90;;;;;;5007607;28;20306;-64
2021/10/08 11:52:04;;;;;;;9.50;8.63;;;24.90;99.90;;;;;;5013612;28;20255;-64
2021/10/08 11:54:30;;;;;;;7.53;6.97;;;25.40;99.90;;;;;;4997921;28;20200;-64
2021/10/08 11:57:04;;;;;;;6.93;6.43;;;25.50;99.90;;;;;;4993920;28;20219;-64
2021/10/08 11:59:30;;;;;;;6.57;5.90;;;25.40;99.90;;;;;;5008150;28;20207;-63
2021/10/08 12:02:15;;;;;;;6.88;6.28;;;25.30;99.90;;;;;;5013440;28;20230;-63
2021/10/08 12:04:59;;;;;;;7.13;6.63;;;24.80;99.90;;;;;;4997730;28;20205;-63
2021/10/08 12:07:25;;;;;;;5.88;5.47;;;24.40;99.90;;;;;;4993996;28;20177;-63
2021/10/08 12:10:13;;;;;;;6.22;5.60;;;24.20;99.90;;;;;;5009402;28;20603;-63
2021/10/08 12:12:57;;;;;;;7.15;6.30;;;24.20;99.90;;;;;;5013334;28;20948;-63
2021/10/08 12:15:34;;;;;;;6.70;5.55;;;24.10;99.90;;;;;;5013059;28;20208;-63
2021/10/08 12:18:01;;;;;;;6.53;6.03;;;24.20;99.90;;;;;;5013009;28;20511;-63
2021/10/08 12:20:36;;;;;;;7.05;6.30;;;24.00;99.90;;;;;;4993197;28;20256;-63
2021/10/08 12:23:23;;;;;;;6.97;6.47;;;24.20;99.90;;;;;;4993606;28;20168;-63
2021/10/08 12:25:51;;;;;;;6.97;6.38;;;24.20;99.90;;;;;;4973872;28;20706;-63
2021/10/08 12:28:23;;;;;;;7.75;6.97;;;24.60;99.90;;;;;;4975589;28;20205;-63
2021/10/08 12:31:07;;;;;;;6.50;6.00;;;24.60;99.90;;;;;;5010231;28;20184;-63
2021/10/08 12:33:36;;;;;;;7.60;7.00;;;24.40;99.90;;;;;;5012880;28;20183;-63
2021/10/08 12:36:23;;;;;;;7.70;6.75;;;24.10;99.90;;;;;;5010925;28;20200;-63
2021/10/08 12:39:05;;;;;;;7.47;6.88;;;24.40;99.90;;;;;;4993257;28;20642;-63
2021/10/08 12:41:53;;;;;;;7.68;7.07;;;24.80;99.90;;;;;;4996720;28;20260;-63
2021/10/08 12:44:23;;;;;;;7.38;6.80;;;25.40;99.90;;;;;;4993131;28;20594;-63